Time;durP1;ratioP1;P1;durP2;ratioP2;P2;SDS_P1;SDS_P2;PMS_P1;PMS_P2;Temp;Humidity;BMP_temperature;BMP_pressure;BME280_temperature;BME280_humidity;BME280_pressure;Samples;Min_cycle;Max_cycle;Signal;HPM_P1;HPM_P2
2023/03/03 00:00:00;;;;;;;;;;;;;;;15.05;50.08;102809.00;2056395;28;19961;-74
2023/03/03 00:01:14;;;;;;;;;;;;;;;15.04;50.14;102805.47;2054621;28;20430;-73
2023/03/03 00:02:15;;;;;;;;;;;;;;;15.05;50.14;102804.34;2048718;28;20314;-73
2023/03/03 00:03:20;;;;;;;;;;;;;;;15.04;50.04;102800.03;2047692;28;20330;-73
2023/03/03 00:04:22;;;;;;;;;;;;;;;15.04;49.96;102805.47;2045564;28;20493;-73
2023/03/03 00:05:25;;;;;;;;;;;;;;;15.04;50.10;102794.59;2049520;28;20451;-73
2023/03/03 00:06:28;;;;;;;;;;;;;;;15.04;49.77;102810.91;2048172;28;19934;-73
2023/03/03 00:07:31;;;;;;;;;;;;;;;15.05;50.25;102809.00;2055666;28;19976;-73
2023/03/03 00:08:33;;;;;;;;;;;;;;;15.04;50.09;102805.47;2055971;28;20021;-72
2023/03/03 00:09:35;;;;;;;;;;;;;;;15.04;49.84;102805.47;2055484;28;19930;-72
2023/03/03 00:10:37;;;;;;;;;;;;;;;15.04;50.00;102808.19;2055401;28;20013;-73
2023/03/03 00:11:40;;;;;;;;;;;;;;;15.03;49.79;102809.34;2056160;28;20073;-73
2023/03/03 00:12:45;;;;;;;;;;;;;;;15.02;49.90;102802.28;2055867;28;19930;-71
2023/03/03 00:13:51;;;;;;;;;;;;;;;15.03;49.95;102807.38;2064404;28;20017;-72
2023/03/03 00:14:53;;;;;;;;;;;;;;;15.03;49.95;102812.06;2064730;28;20345;-73
2023/03/03 00:16:09;;;;;;;;;;;;;;;15.03;49.90;102809.34;2059148;28;19964;-73
2023/03/03 00:17:18;;;;;;;;;;;;;;;15.02;50.24;102807.72;2059310;28;20390;-73
2023/03/03 00:18:22;;;;;;;;;;;;;;;15.02;50.01;102803.06;2058181;28;19926;-73
2023/03/03 00:19:24;;;;;;;;;;;;;;;15.02;49.88;102811.25;2064121;28;19979;-74
2023/03/03 00:20:31;;;;;;;;;;;;;;;15.03;49.96;102814.78;2067838;28;19930;-74
2023/03/03 00:21:39;;;;;;;;;;;;;;;15.02;49.97;102805.81;2057365;28;20291;-74
2023/03/03 00:22:42;;;;;;;;;;;;;;;15.02;50.11;102802.28;2057984;28;20403;-74
2023/03/03 00:23:44;;;;;;;;;;;;;;;15.02;49.84;102808.53;2054754;28;19934;-74
2023/03/03 00:24:48;;;;;;;;;;;;;;;15.02;49.75;102807.72;2055327;28;20418;-73
2023/03/03 00:25:52;;;;;;;;;;;;;;;15.02;49.83;102807.72;2045920;28;20378;-74
2023/03/03 00:26:55;;;;;;;;;;;;;;;15.01;49.96;102806.91;2039893;28;19931;-74
2023/03/03 00:28:00;;;;;;;;;;;;;;;15.02;49.76;102813.16;2040570;29;19966;-74
2023/03/03 00:29:23;;;;;;;;;;;;;;;15.01;49.74;102811.56;2045506;28;19930;-73
2023/03/03 00:30:26;;;;;;;;;;;;;;;15.02;49.94;102813.16;2057559;28;20009;-74
2023/03/03 00:31:30;;;;;;;;;;;;;;;15.01;49.82;102806.13;2047774;28;19978;-74
2023/03/03 00:32:37;;;;;;;;;;;;;;;15.02;49.93;102807.72;2047064;28;20342;-73
2023/03/03 00:33:45;;;;;;;;;;;;;;;15.01;49.66;102800.69;2063451;28;20345;-74
2023/03/03 00:34:47;;;;;;;;;;;;;;;15.00;49.73;102801.78;2061388;28;20034;-73
2023/03/03 00:35:50;;;;;;;;;;;;;;;15.01;49.81;102806.13;2054332;28;19935;-74
2023/03/03 00:36:53;;;;;;;;;;;;;;;15.01;49.82;102806.13;2053563;28;19937;-73
2023/03/03 00:37:57;;;;;;;;;;;;;;;15.00;49.73;102810.75;2053946;28;20382;-73
2023/03/03 00:39:09;;;;;;;;;;;;;;;15.00;49.58;102804.50;2046452;28;20303;-73
2023/03/03 00:40:23;;;;;;;;;;;;;;;15.00;49.94;102809.94;2053847;28;19977;-74
2023/03/03 00:41:26;;;;;;;;;;;;;;;14.99;49.83;102809.16;2055921;28;20390;-73
2023/03/03 00:42:29;;;;;;;;;;;;;;;15.00;49.82;102804.50;2062568;28;19973;-75
2023/03/03 00:43:34;;;;;;;;;;;;;;;14.99;49.80;102813.78;2063047;28;20001;-74
2023/03/03 00:44:42;;;;;;;;;;;;;;;14.99;49.86;102802.91;2055234;28;19930;-74
2023/03/03 00:45:46;;;;;;;;;;;;;;;14.99;49.68;102809.16;2059916;28;19944;-74
2023/03/03 00:46:49;;;;;;;;;;;;;;;14.99;49.80;102808.34;2060758;28;19934;-74
2023/03/03 00:47:51;;;;;;;;;;;;;;;14.99;49.79;102802.91;2065347;28;20433;-74
2023/03/03 00:48:53;;;;;;;;;;;;;;;14.99;49.80;102800.19;2052499;28;19930;-74
2023/03/03 00:50:14;;;;;;;;;;;;;;;14.98;49.77;102804.81;2048813;28;20369;-74
2023/03/03 00:51:24;;;;;;;;;;;;;;;14.98;49.65;102802.09;2060150;28;19933;-73
2023/03/03 00:52:27;;;;;;;;;;;;;;;14.98;49.81;102806.78;2061972;28;20464;-75
2023/03/03 00:53:30;;;;;;;;;;;;;;;14.98;49.95;102801.34;2050756;28;20353;-74
2023/03/03 00:54:32;;;;;;;;;;;;;;;14.98;49.80;102801.34;2050018;28;20425;-75
2023/03/03 00:55:35;;;;;;;;;;;;;;;14.97;49.66;102800.53;2056592;28;20500;-75
2023/03/03 00:56:37;;;;;;;;;;;;;;;14.98;49.75;102801.34;2056536;28;19930;-74
2023/03/03 00:57:41;;;;;;;;;;;;;;;14.97;49.71;102807.88;2043022;28;20354;-75
2023/03/03 00:58:46;;;;;;;;;;;;;;;14.98;49.74;102801.34;2051525;28;19937;-75
2023/03/03 00:59:52;;;;;;;;;;;;;;;14.97;49.68;102800.53;2059696;28;20024;-74
2023/03/03 01:00:57;;;;;;;;;;;;;;;14.97;49.69;102799.72;2054284;28;20445;-74
2023/03/03 01:02:08;;;;;;;;;;;;;;;14.97;49.61;102799.72;2065342;28;19925;-74
2023/03/03 01:03:14;;;;;;;;;;;;;;;14.97;49.83;102799.72;2063109;28;20421;-74
2023/03/03 01:04:16;;;;;;;;;;;;;;;14.96;49.87;102803.56;2041499;29;19931;-74
2023/03/03 01:05:19;;;;;;;;;;;;;;;14.96;49.79;102803.56;2050750;28;20432;-74
2023/03/03 01:06:22;;;;;;;;;;;;;;;14.95;49.70;102802.75;2064115;28;20417;-73
2023/03/03 01:07:24;;;;;;;;;;;;;;;14.96;49.73;102798.13;2049201;28;20413;-74
2023/03/03 01:08:27;;;;;;;;;;;;;;;14.96;49.49;102801.66;2042505;29;20473;-74
2023/03/03 01:09:28;;;;;;;;;;;;;;;14.96;49.68;102803.56;2048317;28;20378;-74
2023/03/03 01:10:33;;;;;;;;;;;;;;;14.96;49.86;102803.56;2045733;28;20415;-74
2023/03/03 01:11:35;;;;;;;;;;;;;;;14.96;49.60;102804.38;2052403;28;20407;-74
2023/03/03 01:12:38;;;;;;;;;;;;;;;14.94;49.80;102806.59;2062080;28;20449;-74
2023/03/03 01:13:41;;;;;;;;;;;;;;;14.95;49.73;102801.97;2053631;28;20380;-74
2023/03/03 01:14:45;;;;;;;;;;;;;;;14.95;49.67;102800.03;2061833;28;20296;-74
2023/03/03 01:15:48;;;;;;;;;;;;;;;14.95;49.70;102802.75;2063412;28;19977;-74
2023/03/03 01:16:51;;;;;;;;;;;;;;;14.94;49.62;102793.00;2063736;28;20354;-74
2023/03/03 01:17:53;;;;;;;;;;;;;;;14.95;49.58;102801.97;2065310;28;20287;-74
2023/03/03 01:18:56;;;;;;;;;;;;;;;14.94;49.71;102801.16;2064430;28;19930;-75
2023/03/03 01:19:57;;;;;;;;;;;;;;;14.94;49.79;102805.81;2064071;28;19933;-75
2023/03/03 01:21:00;;;;;;;;;;;;;;;14.94;49.57;102794.91;2064491;28;19988;-75
2023/03/03 01:22:02;;;;;;;;;;;;;;;14.94;49.31;102795.72;2056070;28;19934;-74
2023/03/03 01:23:05;;;;;;;;;;;;;;;14.94;49.54;102798.44;2049829;28;20034;-75
2023/03/03 01:24:07;;;;;;;;;;;;;;;14.94;49.63;102789.47;2061856;28;20008;-74
2023/03/03 01:25:09;;;;;;;;;;;;;;;14.93;49.61;102796.88;2064055;28;19926;-74
2023/03/03 01:26:12;;;;;;;;;;;;;;;14.93;49.40;102788.69;2056581;28;19946;-74
2023/03/03 01:27:14;;;;;;;;;;;;;;;14.94;49.57;102794.91;2056565;28;20383;-74
2023/03/03 01:28:16;;;;;;;;;;;;;;;14.94;49.71;102797.63;2052217;28;19930;-74
2023/03/03 01:29:19;;;;;;;;;;;;;;;14.93;49.39;102788.69;2056274;28;19970;-74
2023/03/03 01:30:21;;;;;;;;;;;;;;;14.92;49.42;102787.09;2055472;28;20415;-75
2023/03/03 01:31:25;;;;;;;;;;;;;;;14.93;49.47;102787.88;2055812;28;19973;-74
2023/03/03 01:32:27;;;;;;;;;;;;;;;14.93;49.55;102793.34;2057901;28;20325;-74
2023/03/03 01:33:31;;;;;;;;;;;;;;;14.93;49.70;102785.19;2054777;28;20279;-74
2023/03/03 01:34:33;;;;;;;;;;;;;;;14.94;49.52;102792.19;2056146;28;20016;-75
2023/03/03 01:35:36;;;;;;;;;;;;;;;14.93;49.76;102787.88;2063004;28;19926;-74
2023/03/03 01:36:38;;;;;;;;;;;;;;;14.92;49.56;102789.03;2064280;28;19964;-75
2023/03/03 01:37:40;;;;;;;;;;;;;;;14.92;49.64;102781.66;2053250;28;19938;-74
2023/03/03 01:38:42;;;;;;;;;;;;;;;14.92;49.77;102783.59;2064675;28;19925;-75
2023/03/03 01:39:48;;;;;;;;;;;;;;;14.92;49.75;102786.31;2056317;28;19930;-74
2023/03/03 01:40:54;;;;;;;;;;;;;;;14.92;49.48;102794.47;2056021;28;20448;-74
2023/03/03 01:41:55;;;;;;;;;;;;;;;14.92;49.41;102786.31;2051838;28;20474;-74
2023/03/03 01:42:59;;;;;;;;;;;;;;;14.91;49.56;102784.69;2056018;28;19960;-75
2023/03/03 01:44:01;;;;;;;;;;;;;;;14.92;49.53;102780.88;2063746;28;19976;-74
2023/03/03 01:45:14;;;;;;;;;;;;;;;14.91;49.55;102781.97;2056467;28;20350;-75
2023/03/03 01:46:28;;;;;;;;;;;;;;;14.91;49.60;102784.69;2058038;28;19930;-75
2023/03/03 01:47:32;;;;;;;;;;;;;;;14.91;49.52;102779.25;2056412;28;20028;-74
2023/03/03 01:48:37;;;;;;;;;;;;;;;14.91;49.49;102776.53;2054118;28;20402;-74
2023/03/03 01:49:44;;;;;;;;;;;;;;;14.91;49.54;102779.25;2064796;28;19987;-75
2023/03/03 01:50:47;;;;;;;;;;;;;;;14.91;49.56;102781.97;2055043;28;19930;-75
2023/03/03 01:51:52;;;;;;;;;;;;;;;14.90;49.42;102777.66;2047888;28;20069;-75
2023/03/03 01:52:54;;;;;;;;;;;;;;;14.90;49.54;102778.44;2056212;28;20021;-74
2023/03/03 01:53:59;;;;;;;;;;;;;;;14.90;49.64;102781.16;2054831;28;20592;-74
2023/03/03 01:55:03;;;;;;;;;;;;;;;14.89;49.66;102782.28;2056342;28;19934;-74
2023/03/03 01:56:07;;;;;;;;;;;;;;;14.89;49.65;102776.03;2047831;28;20307;-74
2023/03/03 01:57:12;;;;;;;;;;;;;;;14.89;49.28;102781.47;2044420;28;19968;-74
2023/03/03 01:58:16;;;;;;;;;;;;;;;14.89;49.47;102776.03;2056402;28;20379;-74
2023/03/03 01:59:20;;;;;;;;;;;;;;;14.88;49.18;102774.47;2066453;28;19965;-73
2023/03/03 02:00:23;;;;;;;;;;;;;;;14.89;49.57;102773.31;2057505;28;19937;-74
2023/03/03 02:01:25;;;;;;;;;;;;;;;14.89;49.36;102770.59;2038041;29;19978;-74
2023/03/03 02:02:30;;;;;;;;;;;;;;;14.89;49.40;102774.13;2049347;28;20425;-74
2023/03/03 02:03:32;;;;;;;;;;;;;;;14.89;49.43;102773.31;2047036;28;19930;-74
2023/03/03 02:04:35;;;;;;;;;;;;;;;14.89;49.47;102773.31;2048271;28;20434;-73
2023/03/03 02:05:38;;;;;;;;;;;;;;;14.90;49.44;102777.66;2055403;28;19962;-74
2023/03/03 02:06:43;;;;;;;;;;;;;;;14.88;49.37;102775.25;2048525;28;19958;-74
2023/03/03 02:07:45;;;;;;;;;;;;;;;14.89;49.54;102776.03;2055510;28;20406;-74
2023/03/03 02:08:51;;;;;;;;;;;;;;;14.88;49.44;102774.47;2036296;29;20307;-74
2023/03/03 02:09:56;;;;;;;;;;;;;;;14.88;49.48;102777.97;2040064;29;19935;-74
2023/03/03 02:10:59;;;;;;;;;;;;;;;14.89;49.67;102781.47;2045830;28;20469;-74
2023/03/03 02:12:04;;;;;;;;;;;;;;;14.88;49.43;102786.16;2045822;28;19930;-74
2023/03/03 02:13:07;;;;;;;;;;;;;;;14.87;49.48;102781.03;2046678;28;20318;-74
2023/03/03 02:14:09;;;;;;;;;;;;;;;14.87;49.57;102778.31;2040818;28;20327;-75
2023/03/03 02:15:16;;;;;;;;;;;;;;;14.87;49.37;102775.59;2056013;28;20391;-74
2023/03/03 02:16:18;;;;;;;;;;;;;;;14.87;49.30;102786.47;2055743;28;20426;-75
2023/03/03 02:17:21;;;;;;;;;;;;;;;14.87;49.53;102783.75;2048380;28;20317;-75
2023/03/03 02:18:24;;;;;;;;;;;;;;;14.87;49.39;102783.75;2054546;28;19977;-75
2023/03/03 02:19:32;;;;;;;;;;;;;;;14.87;49.26;102781.03;2053280;28;19934;-74
2023/03/03 02:20:39;;;;;;;;;;;;;;;14.87;49.47;102783.75;2046561;28;19954;-75
2023/03/03 02:21:42;;;;;;;;;;;;;;;14.86;49.04;102782.94;2056108;28;19930;-75
2023/03/03 02:22:49;;;;;;;;;;;;;;;14.87;49.26;102786.47;2045529;28;20160;-75
2023/03/03 02:23:53;;;;;;;;;;;;;;;14.87;49.35;102786.47;2048190;28;19931;-74
2023/03/03 02:24:58;;;;;;;;;;;;;;;14.87;49.44;102778.31;2047373;28;20448;-74
2023/03/03 02:26:10;;;;;;;;;;;;;;;14.86;49.51;102772.06;2040467;29;20395;-75
2023/03/03 02:27:13;;;;;;;;;;;;;;;14.85;49.52;102780.53;2042915;28;19995;-75
2023/03/03 02:28:17;;;;;;;;;;;;;;;14.86;49.59;102777.50;2055874;28;20382;-74
2023/03/03 02:29:19;;;;;;;;;;;;;;;14.85;49.29;102778.63;2047273;28;19973;-74
2023/03/03 02:30:23;;;;;;;;;;;;;;;14.86;49.50;102782.13;2047824;28;19934;-74
2023/03/03 02:31:27;;;;;;;;;;;;;;;14.86;49.41;102784.84;2047541;28;19968;-74
2023/03/03 02:32:29;;;;;;;;;;;;;;;14.86;49.20;102776.69;2047588;28;20104;-74
2023/03/03 02:33:31;;;;;;;;;;;;;;;14.85;49.60;102780.53;2046625;28;19985;-74
2023/03/03 02:34:46;;;;;;;;;;;;;;;14.85;49.57;102777.81;2047385;28;20242;-74
2023/03/03 02:35:48;;;;;;;;;;;;;;;14.84;49.28;102779.72;2038796;28;20322;-74
2023/03/03 02:36:51;;;;;;;;;;;;;;;14.85;49.31;102780.53;2039442;28;19994;-74
2023/03/03 02:37:54;;;;;;;;;;;;;;;14.85;49.42;102777.81;2045384;28;20379;-75
2023/03/03 02:39:01;;;;;;;;;;;;;;;14.84;49.26;102774.28;2042591;28;19970;-74
2023/03/03 02:40:03;;;;;;;;;;;;;;;14.84;49.49;102774.28;2046699;28;19934;-74
2023/03/03 02:41:11;;;;;;;;;;;;;;;14.84;49.29;102777.00;2047805;28;20388;-74
2023/03/03 02:42:17;;;;;;;;;;;;;;;14.84;49.27;102778.94;2035430;29;19935;-73
2023/03/03 02:43:29;;;;;;;;;;;;;;;14.84;49.34;102773.50;2042143;28;20430;-74
2023/03/03 02:44:31;;;;;;;;;;;;;;;14.84;49.57;102774.28;2048400;28;20392;-74
2023/03/03 02:45:34;;;;;;;;;;;;;;;14.84;49.54;102768.06;2051607;28;19930;-73
2023/03/03 02:46:37;;;;;;;;;;;;;;;14.84;49.42;102776.25;2055038;28;19973;-74
2023/03/03 02:47:40;;;;;;;;;;;;;;;14.83;49.37;102772.72;2040323;29;19930;-73
2023/03/03 02:48:42;;;;;;;;;;;;;;;14.84;49.36;102773.50;2038982;28;20437;-74
2023/03/03 02:49:45;;;;;;;;;;;;;;;14.83;49.49;102778.16;2047626;28;20391;-74
2023/03/03 02:50:47;;;;;;;;;;;;;;;14.83;49.13;102771.91;2055875;28;19930;-73
2023/03/03 02:51:50;;;;;;;;;;;;;;;14.82;49.35;102775.75;2044577;28;20319;-74
2023/03/03 02:52:52;;;;;;;;;;;;;;;14.83;49.34;102772.72;2042209;28;19935;-74
2023/03/03 02:53:54;;;;;;;;;;;;;;;14.82;49.35;102776.56;2053246;28;20367;-73
2023/03/03 02:54:58;;;;;;;;;;;;;;;14.82;49.51;102773.84;2047992;28;19930;-73
2023/03/03 02:56:03;;;;;;;;;;;;;;;14.83;49.43;102774.63;2047422;28;19937;-73
2023/03/03 02:57:07;;;;;;;;;;;;;;;14.82;49.31;102776.56;2038038;29;20446;-74
2023/03/03 02:58:09;;;;;;;;;;;;;;;14.83;49.45;102780.06;2038707;29;19931;-74
2023/03/03 02:59:12;;;;;;;;;;;;;;;14.83;49.29;102782.78;2055268;28;20041;-74
2023/03/03 03:00:20;;;;;;;;;;;;;;;14.82;49.28;102781.19;2053868;28;19996;-74
2023/03/03 03:01:23;;;;;;;;;;;;;;;14.82;49.30;102781.19;2035200;29;20407;-74
2023/03/03 03:02:26;;;;;;;;;;;;;;;14.83;49.18;102782.78;2037132;28;20319;-74
2023/03/03 03:03:30;;;;;;;;;;;;;;;14.81;49.23;102779.56;2058008;29;19914;-75
2023/03/03 03:04:32;;;;;;;;;;;;;;;14.82;49.31;102786.63;2049357;28;19918;-74
2023/03/03 03:05:35;;;;;;;;;;;;;;;14.83;49.14;102788.22;2057806;28;19942;-75
2023/03/03 03:06:37;;;;;;;;;;;;;;;14.81;49.50;102782.28;2063051;28;20010;-75
2023/03/03 03:07:40;;;;;;;;;;;;;;;14.82;49.26;102781.19;2052186;28;19961;-74
2023/03/03 03:08:42;;;;;;;;;;;;;;;14.74;49.44;102773.84;2050665;28;19985;-75
2023/03/03 03:09:46;;;;;;;;;;;;;;;14.81;49.38;102785.00;2063450;28;19929;-74
2023/03/03 03:10:49;;;;;;;;;;;;;;;14.82;49.17;102786.63;2051285;28;20008;-74
2023/03/03 03:11:52;;;;;;;;;;;;;;;14.81;49.24;102785.81;2058079;28;19930;-75
2023/03/03 03:12:58;;;;;;;;;;;;;;;14.81;49.33;102779.56;2048675;28;20418;-75
2023/03/03 03:14:01;;;;;;;;;;;;;;;14.81;49.35;102780.38;2048676;28;20627;-74
2023/03/03 03:15:04;;;;;;;;;;;;;;;14.81;49.38;102779.56;2056028;28;19949;-74
2023/03/03 03:16:07;;;;;;;;;;;;;;;14.81;49.34;102779.56;2057204;28;20394;-75
2023/03/03 03:17:10;;;;;;;;;;;;;;;14.82;49.29;102775.75;2065466;28;20619;-75
2023/03/03 03:18:13;;;;;;;;;;;;;;;14.80;49.31;102781.50;2055827;28;20375;-75
2023/03/03 03:19:17;;;;;;;;;;;;;;;14.81;49.46;102785.00;2040386;29;20402;-75
2023/03/03 03:20:20;;;;;;;;;;;;;;;14.80;49.38;102778.78;2039426;28;19974;-74
2023/03/03 03:21:21;;;;;;;;;;;;;;;14.80;49.44;102777.97;2055349;28;19926;-74
2023/03/03 03:22:24;;;;;;;;;;;;;;;14.80;49.41;102777.97;2059949;28;19914;-75
2023/03/03 03:23:26;;;;;;;;;;;;;;;14.80;49.31;102783.41;2072229;28;19930;-74
2023/03/03 03:24:30;;;;;;;;;;;;;;;14.80;49.37;102778.78;2060780;28;19930;-74
2023/03/03 03:25:41;;;;;;;;;;;;;;;14.80;49.32;102784.22;2048760;28;19915;-74
2023/03/03 03:26:44;;;;;;;;;;;;;;;14.79;49.28;102779.13;2054998;28;19927;-74
2023/03/03 03:27:46;;;;;;;;;;;;;;;14.79;49.29;102779.91;2058262;28;19994;-74
2023/03/03 03:28:51;;;;;;;;;;;;;;;14.79;49.23;102782.59;2073904;28;19965;-74
2023/03/03 03:29:53;;;;;;;;;;;;;;;14.79;49.32;102777.16;2058150;28;19968;-74
2023/03/03 03:30:56;;;;;;;;;;;;;;;14.79;49.35;102779.91;2048991;28;19938;-75
2023/03/03 03:31:58;;;;;;;;;;;;;;;14.80;49.27;102781.50;2048331;28;19938;-75
2023/03/03 03:33:00;;;;;;;;;;;;;;;14.80;49.31;102783.41;2040228;28;19938;-75
2023/03/03 03:34:02;;;;;;;;;;;;;;;14.79;49.35;102785.34;2049721;28;19930;-74
2023/03/03 03:35:06;;;;;;;;;;;;;;;14.79;49.30;102782.59;2048498;28;20002;-74
2023/03/03 03:36:09;;;;;;;;;;;;;;;14.79;49.26;102781.84;2047878;28;20025;-75
2023/03/03 03:37:12;;;;;;;;;;;;;;;14.79;49.13;102781.84;2060972;28;19983;-75
2023/03/03 03:38:16;;;;;;;;;;;;;;;14.79;49.58;102779.91;2055244;28;19934;-74
2023/03/03 03:39:19;;;;;;;;;;;;;;;14.79;49.34;102781.84;2045177;28;20431;-75
2023/03/03 03:40:24;;;;;;;;;;;;;;;14.77;49.20;102778.63;2048061;28;19934;-74
2023/03/03 03:41:27;;;;;;;;;;;;;;;14.79;49.36;102784.56;2046503;28;19931;-75
2023/03/03 03:42:29;;;;;;;;;;;;;;;14.79;49.44;102782.59;2047604;28;19926;-74
2023/03/03 03:43:32;;;;;;;;;;;;;;;14.79;49.26;102784.56;2055778;28;20460;-74
2023/03/03 03:44:36;;;;;;;;;;;;;;;14.79;49.35;102781.84;2061286;28;19937;-73
2023/03/03 03:45:41;;;;;;;;;;;;;;;14.78;49.36;102785.66;2055702;28;20437;-73
2023/03/03 03:46:43;;;;;;;;;;;;;;;14.78;49.33;102777.50;2056054;28;19977;-74
2023/03/03 03:47:46;;;;;;;;;;;;;;;14.78;49.38;102780.22;2052145;28;19930;-74
2023/03/03 03:48:49;;;;;;;;;;;;;;;14.77;49.17;102778.63;2053631;28;19933;-73
2023/03/03 03:49:54;;;;;;;;;;;;;;;14.77;49.55;102786.78;2052503;28;20364;-73
2023/03/03 03:50:56;;;;;;;;;;;;;;;14.77;49.37;102776.72;2055369;28;20015;-73
2023/03/03 03:52:01;;;;;;;;;;;;;;;14.77;49.25;102778.63;2046453;28;20009;-73
2023/03/03 03:53:05;;;;;;;;;;;;;;;14.76;49.28;102779.75;2040928;28;19953;-75
2023/03/03 03:54:08;;;;;;;;;;;;;;;14.76;49.37;102777.03;2039429;28;19966;-76
2023/03/03 03:55:11;;;;;;;;;;;;;;;14.77;49.20;102775.91;2055816;28;20441;-76
2023/03/03 03:56:15;;;;;;;;;;;;;;;14.77;49.47;102770.47;2054620;28;19930;-75
2023/03/03 03:57:19;;;;;;;;;;;;;;;14.77;49.25;102773.19;2054958;28;20459;-75
2023/03/03 03:58:22;;;;;;;;;;;;;;;14.76;49.33;102771.59;2046916;28;19930;-75
2023/03/03 03:59:30;;;;;;;;;;;;;;;14.76;49.46;102766.16;2049670;28;20342;-74
2023/03/03 04:00:34;;;;;;;;;;;;;;;14.76;49.37;102771.59;2055199;28;19941;-76
2023/03/03 04:01:36;;;;;;;;;;;;;;;14.76;49.10;102771.59;2055748;28;20347;-76
2023/03/03 04:02:39;;;;;;;;;;;;;;;14.75;49.33;102770.78;2056181;28;20353;-75
2023/03/03 04:03:45;;;;;;;;;;;;;;;14.76;49.35;102771.59;2043513;28;19930;-75
2023/03/03 04:04:51;;;;;;;;;;;;;;;14.75;49.25;102768.06;2062018;28;19957;-75
2023/03/03 04:05:54;;;;;;;;;;;;;;;14.76;49.46;102771.59;2059935;28;20329;-75
2023/03/03 04:06:58;;;;;;;;;;;;;;;14.75;49.16;102768.06;2054854;28;20527;-75
2023/03/03 04:08:00;;;;;;;;;;;;;;;14.75;49.40;102764.53;2060319;28;19930;-76
2023/03/03 04:09:03;;;;;;;;;;;;;;;14.76;49.27;102766.16;2050155;28;19953;-75
2023/03/03 04:10:06;;;;;;;;;;;;;;;14.73;49.32;102762.16;2044255;28;20227;-75
2023/03/03 04:11:08;;;;;;;;;;;;;;;14.75;49.37;102764.53;2063477;28;19937;-76
2023/03/03 04:12:11;;;;;;;;;;;;;;;14.74;49.21;102763.78;2068324;28;19949;-75
2023/03/03 04:13:13;;;;;;;;;;;;;;;14.74;49.23;102762.97;2054438;28;19934;-75
2023/03/03 04:14:16;;;;;;;;;;;;;;;14.75;49.18;102764.53;2047754;28;19934;-75
2023/03/03 04:15:18;;;;;;;;;;;;;;;14.74;49.13;102768.41;2056374;28;20306;-76
2023/03/03 04:16:22;;;;;;;;;;;;;;;14.74;49.13;102766.50;2054666;28;21179;-76
2023/03/03 04:17:24;;;;;;;;;;;;;;;14.74;49.27;102768.41;2055751;28;20497;-76
2023/03/03 04:18:27;;;;;;;;;;;;;;;14.74;49.26;102762.97;2046467;28;20442;-76
2023/03/03 04:19:30;;;;;;;;;;;;;;;14.73;49.16;102762.16;2046941;28;19976;-76
2023/03/03 04:20:33;;;;;;;;;;;;;;;14.74;49.24;102765.69;2052020;28;19934;-76
2023/03/03 04:21:35;;;;;;;;;;;;;;;14.74;49.31;102762.97;2042036;28;19934;-76
2023/03/03 04:22:38;;;;;;;;;;;;;;;14.73;49.30;102762.16;2038166;28;19927;-76
2023/03/03 04:23:40;;;;;;;;;;;;;;;14.73;49.12;102769.53;2046214;28;19930;-76
2023/03/03 04:24:43;;;;;;;;;;;;;;;14.73;49.20;102764.09;2054420;28;20358;-76
2023/03/03 04:25:47;;;;;;;;;;;;;;;14.74;49.08;102761.06;2062962;28;19926;-75
2023/03/03 04:26:50;;;;;;;;;;;;;;;14.73;49.38;102762.16;2063970;28;20451;-75
2023/03/03 04:27:53;;;;;;;;;;;;;;;14.74;49.34;102762.97;2054245;28;19930;-75
2023/03/03 04:28:57;;;;;;;;;;;;;;;14.72;49.25;102755.13;2040554;28;20455;-76
2023/03/03 04:30:00;;;;;;;;;;;;;;;14.74;49.37;102762.97;2060638;28;19926;-76
2023/03/03 04:31:03;;;;;;;;;;;;;;;14.73;49.26;102762.16;2050040;28;19926;-76
2023/03/03 04:32:08;;;;;;;;;;;;;;;14.73;49.31;102758.66;2052257;28;19937;-78
2023/03/03 04:33:11;;;;;;;;;;;;;;;14.73;49.16;102761.38;2060591;28;20021;-77
2023/03/03 04:34:15;;;;;;;;;;;;;;;14.73;49.41;102762.16;2049647;28;20484;-76
2023/03/03 04:35:18;;;;;;;;;;;;;;;14.72;48.99;102757.03;2049953;28;19926;-76
2023/03/03 04:36:21;;;;;;;;;;;;;;;14.72;49.24;102760.56;2046875;28;20126;-75
2023/03/03 04:37:23;;;;;;;;;;;;;;;14.72;49.33;102759.75;2055282;28;19978;-75
2023/03/03 04:38:26;;;;;;;;;;;;;;;14.72;49.43;102762.47;2053514;28;20017;-76
2023/03/03 04:39:29;;;;;;;;;;;;;;;14.72;49.08;102759.75;2045584;28;19931;-76
2023/03/03 04:40:32;;;;;;;;;;;;;;;14.71;49.34;102761.66;2043618;28;19938;-76
2023/03/03 04:41:35;;;;;;;;;;;;;;;14.63;49.21;102748.91;2045518;28;20208;-78
2023/03/03 04:42:38;;;;;;;;;;;;;;;14.72;49.09;102762.47;2039106;28;19974;-76
2023/03/03 04:43:42;;;;;;;;;;;;;;;14.71;49.31;102763.59;2039451;29;19934;-76
2023/03/03 04:44:47;;;;;;;;;;;;;;;14.72;49.26;102770.63;2054704;28;20013;-75
2023/03/03 04:45:48;;;;;;;;;;;;;;;14.71;49.21;102766.31;2054708;28;19926;-75
2023/03/03 04:46:52;;;;;;;;;;;;;;;14.70;49.04;102764.72;2053942;28;20024;-75
2023/03/03 04:47:55;;;;;;;;;;;;;;;14.71;49.44;102763.59;2054464;28;19926;-75
2023/03/03 04:48:57;;;;;;;;;;;;;;;14.71;49.14;102767.09;2060188;28;19925;-75
2023/03/03 04:50:00;;;;;;;;;;;;;;;14.71;49.01;102769.81;2055311;28;19934;-75
2023/03/03 04:51:06;;;;;;;;;;;;;;;14.71;49.20;102769.03;2046926;28;20424;-75
2023/03/03 04:52:09;;;;;;;;;;;;;;;14.70;49.08;102765.50;2036945;28;19934;-75
2023/03/03 04:53:13;;;;;;;;;;;;;;;14.70;49.17;102764.72;2055407;28;20064;-76
2023/03/03 04:54:16;;;;;;;;;;;;;;;14.71;48.92;102774.47;2056901;28;19934;-76
2023/03/03 04:55:18;;;;;;;;;;;;;;;14.71;49.15;102763.59;2061626;28;19956;-76
2023/03/03 04:56:22;;;;;;;;;;;;;;;14.71;49.24;102769.03;2046411;28;20004;-76
2023/03/03 04:57:24;;;;;;;;;;;;;;;14.70;49.14;102772.88;2042589;28;20383;-76
2023/03/03 04:58:27;;;;;;;;;;;;;;;14.70;49.02;102770.94;2054864;28;20389;-75
2023/03/03 04:59:31;;;;;;;;;;;;;;;14.69;49.21;102766.66;2054305;28;19993;-76
2023/03/03 05:00:32;;;;;;;;;;;;;;;14.70;49.23;102770.94;2054925;28;20398;-77
2023/03/03 05:01:36;;;;;;;;;;;;;;;14.69;49.01;102763.13;2055132;28;19938;-76
2023/03/03 05:02:38;;;;;;;;;;;;;;;14.69;49.22;102769.38;2040374;29;20442;-76
2023/03/03 05:03:42;;;;;;;;;;;;;;;14.70;49.34;102772.88;2046138;28;19930;-76
2023/03/03 05:04:44;;;;;;;;;;;;;;;14.69;49.24;102769.38;2054851;28;20485;-76
2023/03/03 05:05:47;;;;;;;;;;;;;;;14.69;49.04;102766.66;2041153;28;20437;-75
2023/03/03 05:06:49;;;;;;;;;;;;;;;14.69;49.01;102766.66;2054007;28;19937;-77
2023/03/03 05:07:52;;;;;;;;;;;;;;;14.70;49.21;102762.00;2057626;28;19930;-76
2023/03/03 05:08:53;;;;;;;;;;;;;;;14.67;49.07;102766.16;2041386;28;20474;-76
2023/03/03 05:09:56;;;;;;;;;;;;;;;14.68;49.15;102769.69;2048285;28;19986;-76
2023/03/03 05:11:00;;;;;;;;;;;;;;;14.68;48.93;102767.75;2062998;28;19969;-75
2023/03/03 05:12:03;;;;;;;;;;;;;;;14.68;49.15;102765.03;2059512;28;19976;-75
2023/03/03 05:13:05;;;;;;;;;;;;;;;14.68;49.07;102761.53;2055536;28;19937;-75
2023/03/03 05:14:08;;;;;;;;;;;;;;;14.68;49.13;102759.59;2070402;28;19987;-74
2023/03/03 05:15:10;;;;;;;;;;;;;;;14.67;49.12;102771.59;2068747;28;19929;-75
2023/03/03 05:16:13;;;;;;;;;;;;;;;14.67;49.07;102768.06;2058715;28;20455;-76
2023/03/03 05:17:14;;;;;;;;;;;;;;;14.67;48.96;102770.78;2065037;28;20024;-75
2023/03/03 05:18:18;;;;;;;;;;;;;;;14.67;49.00;102765.34;2055111;28;19972;-76
2023/03/03 05:19:21;;;;;;;;;;;;;;;14.67;49.25;102774.31;2055048;28;20530;-76
2023/03/03 05:20:24;;;;;;;;;;;;;;;14.67;49.24;102768.06;2054685;28;20444;-76
2023/03/03 05:21:25;;;;;;;;;;;;;;;14.66;49.05;102778.16;2053671;28;19997;-76
2023/03/03 05:22:28;;;;;;;;;;;;;;;14.66;49.26;102766.47;2041920;28;20374;-75
2023/03/03 05:23:30;;;;;;;;;;;;;;;14.67;49.35;102773.50;2049760;28;19931;-76
2023/03/03 05:24:32;;;;;;;;;;;;;;;14.66;49.04;102771.91;2044430;28;20138;-76
2023/03/03 05:25:34;;;;;;;;;;;;;;;14.67;49.03;102765.34;2050676;28;19926;-76
2023/03/03 05:26:37;;;;;;;;;;;;;;;14.66;49.03;102777.34;2056234;28;20257;-75